Time;durP1;ratioP1;P1;durP2;ratioP2;P2;SDS_P1;SDS_P2;PMS_P1;PMS_P2;Temp;Humidity;BMP_temperature;BMP_pressure;BME280_temperature;BME280_humidity;BME280_pressure;Samples;Min_cycle;Max_cycle;Signal;HPM_P1;HPM_P2
2023/03/01 00:00:14;;;;;;;;;;;;;;;8.12;78.31;102809.56;7354836;19;21502;-64
2023/03/01 00:02:41;;;;;;;;;;;;;;;8.13;78.21;102813.84;7357596;19;20271;-63
2023/03/01 00:05:08;;;;;;;;;;;;;;;8.12;78.92;102816.56;7356744;19;19933;-63
2023/03/01 00:07:35;;;;;;;;;;;;;;;8.16;78.22;102815.44;7358942;19;19997;-64
2023/03/01 00:10:03;;;;;;;;;;;;;;;8.19;78.67;102807.41;7358714;19;20069;-64
2023/03/01 00:12:31;;;;;;;;;;;;;;;8.20;79.21;102816.13;7360020;19;19919;-64
2023/03/01 00:14:58;;;;;;;;;;;;;;;8.17;78.43;102819.78;7354513;19;20396;-63
2023/03/01 00:17:27;;;;;;;;;;;;;;;8.16;77.43;102818.91;7356541;19;20021;-63
2023/03/01 00:19:54;;;;;;;;;;;;;;;8.11;77.30;102823.59;7358059;19;20390;-64
2023/03/01 00:22:21;;;;;;;;;;;;;;;8.11;77.82;102823.59;7358032;19;19940;-63
2023/03/01 00:24:48;;;;;;;;;;;;;;;8.11;78.54;102828.81;7359603;19;19918;-63
2023/03/01 00:27:15;;;;;;;;;;;;;;;8.12;77.27;102832.28;7357828;19;19925;-62
2023/03/01 00:29:42;;;;;;;;;;;;;;;8.11;78.18;102830.59;7357109;19;21549;-64
2023/03/01 00:32:09;;;;;;;;;;;;;;;8.11;78.27;102828.81;7357794;19;19923;-63
2023/03/01 00:34:36;;;;;;;;;;;;;;;8.14;77.75;102836.50;7358470;19;19922;-63
2023/03/01 00:37:04;;;;;;;;;;;;;;;8.11;77.65;102834.06;7356765;19;19941;-63
2023/03/01 00:39:33;;;;;;;;;;;;;;;8.11;79.16;102830.59;7355602;19;19927;-63
2023/03/01 00:42:00;;;;;;;;;;;;;;;8.06;78.82;102820.38;7356161;19;19923;-63
2023/03/01 00:44:28;;;;;;;;;;;;;;;8.04;78.45;102821.38;7354529;19;19958;-65
2023/03/01 00:46:55;;;;;;;;;;;;;;;8.01;78.77;102821.56;7359913;19;19925;-63
2023/03/01 00:49:24;;;;;;;;;;;;;;;7.99;79.77;102820.78;7359158;19;20423;-64
2023/03/01 00:51:51;;;;;;;;;;;;;;;8.00;78.54;102818.09;7358571;19;19925;-64
2023/03/01 00:54:21;;;;;;;;;;;;;;;7.97;78.67;102815.66;7354297;19;20576;-63
2023/03/01 00:56:48;;;;;;;;;;;;;;;8.00;78.82;102817.25;7356182;19;19918;-62
2023/03/01 00:59:15;;;;;;;;;;;;;;;7.98;78.54;102808.63;7353408;19;19927;-64
2023/03/01 01:01:42;;;;;;;;;;;;;;;8.00;78.74;102817.25;7356190;19;19923;-63
2023/03/01 01:04:11;;;;;;;;;;;;;;;8.00;78.58;102812.00;7357423;19;20025;-65
2023/03/01 01:06:39;;;;;;;;;;;;;;;7.96;79.46;102811.34;7357076;19;20173;-62
2023/03/01 01:09:07;;;;;;;;;;;;;;;7.92;79.07;102809.84;7357740;19;20010;-65
2023/03/01 01:11:36;;;;;;;;;;;;;;;7.85;79.13;102818.97;7357244;19;19926;-64
2023/03/01 01:14:03;;;;;;;;;;;;;;;7.87;80.21;102814.50;7353301;19;20363;-64
2023/03/01 01:16:30;;;;;;;;;;;;;;;7.87;80.66;102822.34;7356642;19;20157;-63
2023/03/01 01:18:57;;;;;;;;;;;;;;;7.89;78.98;102823.09;7355773;19;19959;-64
2023/03/01 01:21:25;;;;;;;;;;;;;;;7.89;78.71;102815.22;7355885;19;19938;-62
2023/03/01 01:23:52;;;;;;;;;;;;;;;7.92;78.48;102815.09;7356363;19;20287;-63
2023/03/01 01:26:22;;;;;;;;;;;;;;;7.89;79.39;102806.53;7356867;19;19926;-63
2023/03/01 01:28:49;;;;;;;;;;;;;;;7.90;79.23;102819.53;7352713;19;19930;-64
2023/03/01 01:31:16;;;;;;;;;;;;;;;7.88;79.15;102815.31;7356625;19;19994;-67
2023/03/01 01:33:43;;;;;;;;;;;;;;;7.88;79.29;102807.44;7356038;19;19923;-63
2023/03/01 01:36:10;;;;;;;;;;;;;;;7.90;79.17;102811.69;7355879;19;20085;-63
2023/03/01 01:38:38;;;;;;;;;;;;;;;7.88;79.66;102808.28;7354405;19;20283;-63
2023/03/01 01:41:05;;;;;;;;;;;;;;;7.88;79.24;102804.81;7355770;19;19919;-63
2023/03/01 01:43:35;;;;;;;;;;;;;;;7.87;79.48;102803.16;7352135;19;21620;-64
2023/03/01 01:46:04;;;;;;;;;;;;;;;7.82;78.99;102806.03;7355917;19;19994;-62
2023/03/01 01:48:40;;;;;;;;;;;;;;;7.72;79.26;102807.44;7354196;19;19946;-65
2023/03/01 01:51:09;;;;;;;;;;;;;;;7.69;79.39;102795.38;7354119;19;19933;-63
2023/03/01 01:53:36;;;;;;;;;;;;;;;7.68;80.11;102790.22;7356286;19;19970;-62
2023/03/01 01:56:06;;;;;;;;;;;;;;;7.70;81.59;102789.22;7361929;19;20018;-65
2023/03/01 01:58:33;;;;;;;;;;;;;;;7.69;81.74;102782.28;7359444;19;20683;-64
2023/03/01 02:01:01;;;;;;;;;;;;;;;7.71;80.33;102783.06;7361227;19;19918;-63
2023/03/01 02:03:32;;;;;;;;;;;;;;;7.74;79.50;102776.78;7362168;19;19918;-63
2023/03/01 02:06:04;;;;;;;;;;;;;;;7.73;79.84;102775.09;7363014;19;19955;-63
2023/03/01 02:08:33;;;;;;;;;;;;;;;7.74;79.53;102771.56;7361037;19;19986;-64
2023/03/01 02:11:00;;;;;;;;;;;;;;;7.71;79.55;102771.72;7362461;19;19982;-63
2023/03/01 02:13:27;;;;;;;;;;;;;;;7.68;79.95;102764.03;7356180;19;19923;-64
2023/03/01 02:15:54;;;;;;;;;;;;;;;7.68;81.71;102766.66;7362989;19;19917;-63
2023/03/01 02:18:23;;;;;;;;;;;;;;;7.65;81.35;102762.44;7359459;19;19915;-64
2023/03/01 02:20:53;;;;;;;;;;;;;;;7.65;80.16;102757.19;7361067;19;19934;-64
2023/03/01 02:23:20;;;;;;;;;;;;;;;7.68;80.64;102754.41;7361543;19;19959;-63
2023/03/01 02:25:52;;;;;;;;;;;;;;;7.68;80.71;102759.63;7362367;19;19923;-65
2023/03/01 02:28:22;;;;;;;;;;;;;;;7.68;80.77;102758.78;7358199;19;19919;-64
2023/03/01 02:33:23;;;;;;;;;;;;;;;7.70;80.17;102755.16;7361869;19;19982;-63
2023/03/01 02:35:52;;;;;;;;;;;;;;;7.69;80.81;102760.47;7368906;19;19997;-63
2023/03/01 02:38:19;;;;;;;;;;;;;;;7.66;81.90;102748.41;7361696;19;20344;-64
2023/03/01 02:40:47;;;;;;;;;;;;;;;7.65;80.66;102745.88;7362708;19;19994;-63
2023/03/01 02:43:15;;;;;;;;;;;;;;;7.63;80.95;102743.34;7359124;19;20013;-63
2023/03/01 02:45:44;;;;;;;;;;;;;;;7.65;80.57;102746.72;7361130;19;19919;-63
2023/03/01 02:48:11;;;;;;;;;;;;;;;7.62;79.93;102748.66;7360509;19;19910;-63
2023/03/01 02:50:41;;;;;;;;;;;;;;;7.60;80.23;102738.28;7361199;19;20329;-64
2023/03/01 02:53:12;;;;;;;;;;;;;;;7.56;80.25;102741.16;7361988;19;19999;-64
2023/03/01 02:55:40;;;;;;;;;;;;;;;7.49;80.78;102734.56;7363038;19;19922;-64
2023/03/01 02:58:07;;;;;;;;;;;;;;;7.46;80.87;102721.66;7359262;19;19994;-63
2023/03/01 03:00:39;;;;;;;;;;;;;;;7.45;81.50;102725.19;7357667;19;20451;-63
2023/03/01 03:03:06;;;;;;;;;;;;;;;7.47;81.14;102725.94;7361919;19;19957;-63
2023/03/01 03:05:33;;;;;;;;;;;;;;;7.48;81.01;102719.78;7362252;19;19930;-65
2023/03/01 03:08:01;;;;;;;;;;;;;;;7.51;81.93;102714.38;7362471;19;20638;-63
2023/03/01 03:10:30;;;;;;;;;;;;;;;7.49;80.76;102711.00;7360134;19;19926;-63
2023/03/01 03:12:58;;;;;;;;;;;;;;;7.49;80.87;102711.84;7361810;19;20215;-64
2023/03/01 03:15:25;;;;;;;;;;;;;;;7.48;81.21;102715.38;7360179;19;19946;-61
2023/03/01 03:17:53;;;;;;;;;;;;;;;7.52;81.93;102716.03;7360440;19;19930;-63
2023/03/01 03:20:21;;;;;;;;;;;;;;;7.53;80.99;102715.13;7358417;19;19987;-64
2023/03/01 03:22:49;;;;;;;;;;;;;;;7.48;81.12;102706.69;7360846;19;19919;-63
2023/03/01 03:25:16;;;;;;;;;;;;;;;7.46;81.73;102712.03;7358590;19;19922;-65
2023/03/01 03:27:44;;;;;;;;;;;;;;;7.45;81.99;102709.47;7354604;19;19941;-62
2023/03/01 03:30:13;;;;;;;;;;;;;;;7.38;82.88;102714.22;7356189;19;20589;-63
2023/03/01 03:32:40;;;;;;;;;;;;;;;7.37;82.30;102709.88;7360351;19;19940;-63
2023/03/01 03:35:09;;;;;;;;;;;;;;;7.36;82.55;102700.38;7358228;19;19919;-64
2023/03/01 03:40:15;;;;;;;;;;;;;;;7.37;83.74;102694.19;7355365;19;19915;-63
2023/03/01 03:42:42;;;;;;;;;;;;;;;7.37;83.31;102699.41;7359433;19;20898;-64
2023/03/01 03:45:09;;;;;;;;;;;;;;;7.35;83.67;102693.44;7356751;19;19919;-64
2023/03/01 03:47:35;;;;;;;;;;;;;;;7.32;83.90;102699.69;7359407;19;19930;-63
2023/03/01 03:50:02;;;;;;;;;;;;;;;7.31;84.82;102692.75;7358127;19;19947;-63
2023/03/01 03:52:29;;;;;;;;;;;;;;;7.29;84.73;102691.16;7358440;19;19929;-62
2023/03/01 03:54:55;;;;;;;;;;;;;;;7.29;84.92;102689.38;7358782;19;19955;-64
2023/03/01 03:57:22;;;;;;;;;;;;;;;7.29;84.99;102686.78;7356730;19;19937;-62
2023/03/01 03:59:49;;;;;;;;;;;;;;;7.31;84.94;102681.47;7355322;19;19974;-65
2023/03/01 04:02:21;;;;;;;;;;;;;;;7.30;84.98;102680.63;7360694;19;20031;-65
2023/03/01 04:04:49;;;;;;;;;;;;;;;7.21;85.21;102683.72;7358757;19;19955;-64
2023/03/01 04:07:16;;;;;;;;;;;;;;;7.16;85.55;102672.66;7358106;19;19974;-62
2023/03/01 04:09:43;;;;;;;;;;;;;;;7.16;85.80;102677.06;7357039;19;19930;-63
2023/03/01 04:12:10;;;;;;;;;;;;;;;7.15;86.37;102673.63;7357935;19;20006;-64
2023/03/01 04:14:37;;;;;;;;;;;;;;;7.12;86.72;102675.53;7355843;19;20263;-62
2023/03/01 04:17:05;;;;;;;;;;;;;;;7.10;86.18;102670.41;7356651;19;20595;-63
2023/03/01 04:19:35;;;;;;;;;;;;;;;7.09;86.76;102662.63;7356632;19;19925;-63
2023/03/01 04:22:09;;;;;;;;;;;;;;;7.06;87.56;102660.19;7358227;19;20385;-64
2023/03/01 04:24:35;;;;;;;;;;;;;;;7.05;86.95;102659.34;7358913;19;19974;-63
2023/03/01 04:27:02;;;;;;;;;;;;;;;7.03;86.65;102655.97;7358672;19;19986;-64
2023/03/01 04:29:29;;;;;;;;;;;;;;;7.04;87.25;102660.28;7354906;19;19939;-63
2023/03/01 04:31:56;;;;;;;;;;;;;;;7.01;87.25;102659.59;7357371;19;20335;-63
2023/03/01 04:34:23;;;;;;;;;;;;;;;7.00;87.19;102650.06;7358415;19;20595;-63
2023/03/01 04:36:50;;;;;;;;;;;;;;;6.99;87.90;102650.97;7356778;19;19923;-64
2023/03/01 04:39:17;;;;;;;;;;;;;;;7.04;89.17;102655.03;7356867;19;20392;-63
2023/03/01 04:41:44;;;;;;;;;;;;;;;7.08;88.39;102659.16;7353051;19;20023;-62
2023/03/01 04:44:10;;;;;;;;;;;;;;;7.09;87.92;102649.53;7354064;19;20331;-63
2023/03/01 04:46:40;;;;;;;;;;;;;;;7.04;88.46;102647.19;7357950;19;19926;-63
2023/03/01 04:49:06;;;;;;;;;;;;;;;7.10;88.12;102646.00;7356954;19;19919;-63
2023/03/01 04:51:33;;;;;;;;;;;;;;;7.11;87.86;102643.28;7354872;19;19923;-64
2023/03/01 04:54:00;;;;;;;;;;;;;;;7.12;88.74;102634.50;7360066;19;20384;-63
2023/03/01 04:56:27;;;;;;;;;;;;;;;7.12;88.56;102641.50;7359369;19;20581;-64
2023/03/01 04:58:54;;;;;;;;;;;;;;;7.14;89.47;102642.28;7351970;19;20508;-63
2023/03/01 05:01:21;;;;;;;;;;;;;;;7.15;89.46;102642.19;7357271;19;19945;-64
2023/03/01 05:03:49;;;;;;;;;;;;;;;7.16;88.53;102648.28;7356028;19;19927;-66
2023/03/01 05:06:17;;;;;;;;;;;;;;;7.15;88.52;102633.50;7357672;19;19955;-63
2023/03/01 05:08:44;;;;;;;;;;;;;;;7.18;88.47;102633.31;7357373;19;20354;-64
2023/03/01 05:11:11;;;;;;;;;;;;;;;7.15;88.55;102636.13;7357317;19;19941;-63
2023/03/01 05:13:39;;;;;;;;;;;;;;;7.17;89.40;102635.09;7352774;19;20275;-63
2023/03/01 05:16:06;;;;;;;;;;;;;;;7.19;88.78;102637.63;7356729;19;19927;-63
2023/03/01 05:18:33;;;;;;;;;;;;;;;7.18;88.08;102635.94;7353939;19;19926;-64
2023/03/01 05:21:03;;;;;;;;;;;;;;;7.20;88.29;102637.56;7357651;19;19931;-64
2023/03/01 05:23:31;;;;;;;;;;;;;;;7.22;87.01;102633.06;7355249;19;19918;-63
2023/03/01 05:25:59;;;;;;;;;;;;;;;7.25;86.22;102630.28;7357336;19;20427;-64
2023/03/01 05:28:27;;;;;;;;;;;;;;;7.25;86.82;102624.22;7356058;19;20193;-64
2023/03/01 05:30:55;;;;;;;;;;;;;;;7.23;87.71;102628.66;7365121;19;20436;-63
2023/03/01 05:33:22;;;;;;;;;;;;;;;7.21;88.39;102633.16;7362337;19;19911;-64
2023/03/01 05:35:49;;;;;;;;;;;;;;;7.24;88.25;102625.13;7364841;19;19927;-62
2023/03/01 05:38:16;;;;;;;;;;;;;;;7.23;87.71;102620.81;7361004;19;20013;-63
2023/03/01 05:40:44;;;;;;;;;;;;;;;7.23;86.92;102612.97;7363680;19;20407;-66
2023/03/01 05:43:11;;;;;;;;;;;;;;;7.22;86.46;102616.50;7362060;19;19923;-63
2023/03/01 05:45:38;;;;;;;;;;;;;;;7.21;86.64;102613.03;7361541;19;20014;-63
2023/03/01 05:48:05;;;;;;;;;;;;;;;7.22;87.49;102612.13;7362511;19;19918;-63
2023/03/01 05:50:34;;;;;;;;;;;;;;;7.23;88.15;102618.19;7363183;19;19930;-63
2023/03/01 05:53:05;;;;;;;;;;;;;;;7.26;86.40;102621.47;7365224;19;19938;-62
2023/03/01 05:55:32;;;;;;;;;;;;;;;7.23;85.77;102612.97;7362568;19;19969;-63
2023/03/01 05:58:00;;;;;;;;;;;;;;;7.19;85.86;102619.31;7360638;19;19926;-64
2023/03/01 06:00:27;;;;;;;;;;;;;;;7.18;87.12;102610.59;7359859;19;19959;-64
2023/03/01 06:02:54;;;;;;;;;;;;;;;7.18;87.03;102609.75;7362037;19;19955;-62
2023/03/01 06:05:21;;;;;;;;;;;;;;;7.17;86.26;102611.53;7360273;19;19922;-64
2023/03/01 06:07:49;;;;;;;;;;;;;;;7.18;86.73;102613.22;7361754;19;19919;-63
2023/03/01 06:10:17;;;;;;;;;;;;;;;7.18;86.48;102608.00;7362678;19;19933;-67
2023/03/01 06:12:44;;;;;;;;;;;;;;;7.21;86.92;102605.19;7363385;19;19990;-64
2023/03/01 06:15:12;;;;;;;;;;;;;;;7.24;86.63;102617.28;7360395;19;20498;-64
2023/03/01 06:17:40;;;;;;;;;;;;;;;7.27;86.45;102620.56;7362036;19;20363;-62
2023/03/01 06:20:09;;;;;;;;;;;;;;;7.27;86.06;102623.16;7361629;19;20332;-62
2023/03/01 06:22:36;;;;;;;;;;;;;;;7.27;85.28;102615.31;7361270;19;21507;-65
2023/03/01 06:25:03;;;;;;;;;;;;;;;7.26;84.95;102620.66;7362765;19;19922;-62
2023/03/01 06:27:29;;;;;;;;;;;;;;;7.26;85.36;102623.28;7361622;19;19923;-63
2023/03/01 06:29:56;;;;;;;;;;;;;;;7.24;85.66;102612.03;7361150;19;19926;-64
2023/03/01 06:32:23;;;;;;;;;;;;;;;7.26;85.82;102620.66;7361876;19;20527;-65
2023/03/01 06:34:50;;;;;;;;;;;;;;;7.26;84.88;102618.84;7361860;19;19933;-63
2023/03/01 06:37:17;;;;;;;;;;;;;;;7.28;85.28;102626.63;7362025;19;19954;-64
2023/03/01 06:39:43;;;;;;;;;;;;;;;7.28;85.04;102629.25;7356277;19;20539;-63
2023/03/01 06:42:10;;;;;;;;;;;;;;;7.25;84.93;102632.91;7361633;19;19922;-63
2023/03/01 06:44:37;;;;;;;;;;;;;;;7.25;85.08;102632.06;7357057;19;20343;-64
2023/03/01 06:47:04;;;;;;;;;;;;;;;7.25;84.95;102629.44;7361129;19;19930;-65
2023/03/01 06:49:33;;;;;;;;;;;;;;;7.24;84.53;102641.69;7358867;19;19919;-64
2023/03/01 06:52:00;;;;;;;;;;;;;;;7.22;85.08;102640.06;7359499;19;20551;-63
2023/03/01 06:54:27;;;;;;;;;;;;;;;7.20;85.41;102634.94;7359858;19;19930;-63
2023/03/01 06:56:53;;;;;;;;;;;;;;;7.23;85.56;102632.13;7362694;19;20347;-62
2023/03/01 06:59:20;;;;;;;;;;;;;;;7.25;85.45;102630.28;7354152;19;19922;-64
2023/03/01 07:01:47;;;;;;;;;;;;;;;7.27;85.63;102638.88;7360343;19;19922;-63
2023/03/01 07:04:14;;;;;;;;;;;;;;;7.32;84.69;102634.22;7362445;19;20477;-64
2023/03/01 07:06:41;;;;;;;;;;;;;;;7.34;84.06;102636.78;7361130;19;19927;-64
2023/03/01 07:09:07;;;;;;;;;;;;;;;7.31;84.34;102642.19;7359356;19;19998;-64
2023/03/01 07:11:34;;;;;;;;;;;;;;;7.25;84.27;102643.38;7361354;19;19966;-63
2023/03/01 07:14:01;;;;;;;;;;;;;;;7.18;83.84;102641.16;7356644;19;19933;-64
2023/03/01 07:16:28;;;;;;;;;;;;;;;7.18;84.18;102642.03;7361568;19;19978;-63
2023/03/01 07:18:55;;;;;;;;;;;;;;;7.17;84.02;102642.94;7357397;19;20054;-62
2023/03/01 07:21:25;;;;;;;;;;;;;;;7.21;84.70;102644.44;7360047;19;19922;-64
2023/03/01 07:23:52;;;;;;;;;;;;;;;7.22;83.92;102645.31;7358945;19;20280;-63
2023/03/01 07:26:19;;;;;;;;;;;;;;;7.28;83.68;102642.34;7360556;19;19933;-63
2023/03/01 07:28:45;;;;;;;;;;;;;;;7.29;84.06;102641.41;7355960;19;20011;-63
2023/03/01 07:31:12;;;;;;;;;;;;;;;7.31;83.39;102650.84;7360933;19;20525;-64
2023/03/01 07:33:39;;;;;;;;;;;;;;;7.32;83.45;102651.72;7357280;19;19927;-64
2023/03/01 07:36:07;;;;;;;;;;;;;;;7.34;83.26;102651.63;7360250;19;20237;-63
2023/03/01 07:38:34;;;;;;;;;;;;;;;7.35;83.08;102648.09;7356560;19;19926;-64
2023/03/01 07:41:02;;;;;;;;;;;;;;;7.39;83.20;102639.97;7360227;19;19919;-66
2023/03/01 07:43:30;;;;;;;;;;;;;;;7.40;82.57;102646.91;7355697;19;19923;-64
2023/03/01 07:45:58;;;;;;;;;;;;;;;7.45;82.60;102638.78;7359545;19;19952;-65
2023/03/01 07:48:25;;;;;;;;;;;;;;;7.49;82.95;102643.75;7356728;19;20753;-64
2023/03/01 07:50:52;;;;;;;;;;;;;;;7.54;82.07;102638.25;7357349;19;19957;-65
2023/03/01 07:53:19;;;;;;;;;;;;;;;7.57;82.20;102630.19;7356616;19;20013;-64
2023/03/01 07:56:03;;;;;;;;;;;;;;;7.59;81.80;102637.06;7355683;19;21566;-65
2023/03/01 07:58:30;;;;;;;;;;;;;;;7.63;83.40;102625.47;7351644;19;19918;-65
2023/03/01 08:01:00;;;;;;;;;;;;;;;7.86;89.49;102624.13;7358167;19;20511;-63
2023/03/01 08:03:27;;;;;;;;;;;;;;;7.92;84.03;102630.78;7356709;19;19925;-65
2023/03/01 08:05:54;;;;;;;;;;;;;;;7.89;80.31;102628.31;7360146;19;19994;-63
2023/03/01 08:08:21;;;;;;;;;;;;;;;7.82;80.24;102646.22;7360177;19;19949;-63
2023/03/01 08:10:48;;;;;;;;;;;;;;;7.76;80.98;102643.94;7359680;19;20355;-63
2023/03/01 08:13:15;;;;;;;;;;;;;;;7.71;81.01;102644.22;7359334;19;19922;-63
2023/03/01 08:15:47;;;;;;;;;;;;;;;7.66;81.05;102634.94;7359979;19;19934;-64
2023/03/01 08:18:14;;;;;;;;;;;;;;;7.52;80.86;102629.63;7359147;19;19923;-63
2023/03/01 08:20:40;;;;;;;;;;;;;;;7.47;81.22;102634.28;7358470;19;19923;-63
2023/03/01 08:23:07;;;;;;;;;;;;;;;7.48;81.78;102626.34;7358093;19;19941;-63
2023/03/01 08:25:34;;;;;;;;;;;;;;;7.52;81.35;102627.00;7358599;19;20223;-65
2023/03/01 08:28:02;;;;;;;;;;;;;;;7.54;81.67;102619.91;7359479;19;19958;-63
2023/03/01 08:30:29;;;;;;;;;;;;;;;7.60;80.91;102620.41;7357253;19;19947;-64
2023/03/01 08:32:56;;;;;;;;;;;;;;;7.71;80.48;102615.41;7356216;19;19956;-64
2023/03/01 08:35:23;;;;;;;;;;;;;;;7.79;79.91;102614.06;7357006;19;19935;-63
2023/03/01 08:37:51;;;;;;;;;;;;;;;7.85;80.24;102614.56;7357691;19;19919;-63
2023/03/01 08:40:18;;;;;;;;;;;;;;;7.97;79.92;102605.16;7358061;19;19911;-63
2023/03/01 08:42:45;;;;;;;;;;;;;;;8.11;78.84;102610.41;7357007;19;19915;-63
2023/03/01 08:45:14;;;;;;;;;;;;;;;8.22;80.06;102609.75;7352800;19;19926;-64
2023/03/01 08:47:41;;;;;;;;;;;;;;;8.30;77.50;102607.53;7356722;19;20403;-64
2023/03/01 08:50:08;;;;;;;;;;;;;;;8.32;76.71;102608.28;7356844;19;19938;-63
2023/03/01 08:52:35;;;;;;;;;;;;;;;8.29;76.92;102611.03;7357887;19;19927;-63
2023/03/01 08:55:02;;;;;;;;;;;;;;;8.39;77.80;102604.31;7356306;19;19994;-64
2023/03/01 08:57:29;;;;;;;;;;;;;;;8.62;78.12;102609.00;7357765;19;19922;-63
2023/03/01 08:59:56;;;;;;;;;;;;;;;8.91;76.30;102615.03;7352171;19;20340;-65
2023/03/01 09:02:23;;;;;;;;;;;;;;;9.15;75.84;102607.34;7355134;19;19930;-65
2023/03/01 09:04:50;;;;;;;;;;;;;;;9.26;72.90;102618.00;7358827;19;20256;-64
2023/03/01 09:07:27;;;;;;;;;;;;;;;9.42;72.77;102606.41;7357423;19;19923;-63
2023/03/01 09:09:59;;;;;;;;;;;;;;;9.58;72.21;102608.00;7357905;19;19930;-64
2023/03/01 09:12:27;;;;;;;;;;;;;;;9.59;71.68;102601.81;7357658;19;19941;-61
2023/03/01 09:14:54;;;;;;;;;;;;;;;8.94;71.92;102609.56;7354387;19;19965;-64
2023/03/01 09:17:21;;;;;;;;;;;;;;;9.01;72.06;102600.38;7357699;19;19919;-64
2023/03/01 09:19:48;;;;;;;;;;;;;;;8.97;72.25;102610.25;7356267;19;19953;-65
2023/03/01 09:22:15;;;;;;;;;;;;;;;8.92;72.61;102595.72;7357557;19;20011;-65
2023/03/01 09:24:43;;;;;;;;;;;;;;;8.89;72.67;102590.66;7349204;19;19926;-64
2023/03/01 09:27:12;;;;;;;;;;;;;;;8.82;73.14;102586.75;7358263;19;20796;-63
2023/03/01 09:29:39;;;;;;;;;;;;;;;8.85;73.37;102592.63;7354481;19;19926;-65
2023/03/01 09:32:08;;;;;;;;;;;;;;;8.80;74.00;102583.38;7356361;19;20181;-63
2023/03/01 09:35:00;;;;;;;;;;;;;;;8.83;74.03;102578.78;7356474;19;20059;-63
2023/03/01 09:37:21;;;;;;;;;;;;;;;8.84;74.13;102584.84;7357655;19;19930;-63
2023/03/01 09:39:48;;;;;;;;;;;;;;;8.82;74.35;102577.09;7352970;19;19966;-64
2023/03/01 09:42:16;;;;;;;;;;;;;;;8.84;74.54;102571.72;7356308;19;19953;-65
2023/03/01 09:44:47;;;;;;;;;;;;;;;8.87;74.39;102574.19;7356418;19;19922;-65
2023/03/01 09:47:33;;;;;;;;;;;;;;;8.84;73.36;102576.97;7358002;19;19922;-63
2023/03/01 09:50:07;;;;;;;;;;;;;;;8.67;74.20;102566.72;7355394;19;20466;-63
2023/03/01 09:52:39;;;;;;;;;;;;;;;8.67;74.75;102564.09;7357485;19;19948;-64
2023/03/01 09:55:09;;;;;;;;;;;;;;;8.68;74.87;102560.56;7357374;19;19937;-63
2023/03/01 09:57:39;;;;;;;;;;;;;;;8.64;74.67;102557.25;7356609;19;19927;-63
2023/03/01 10:00:06;;;;;;;;;;;;;;;8.65;74.66;102558.09;7351365;19;19949;-64
2023/03/01 10:02:36;;;;;;;;;;;;;;;8.65;75.51;102556.31;7356224;19;20375;-63
2023/03/01 10:05:06;;;;;;;;;;;;;;;8.68;75.25;102555.31;7356651;19;20001;-64
2023/03/01 10:07:36;;;;;;;;;;;;;;;8.78;77.21;102561.66;7355194;19;19919;-63
2023/03/01 10:10:07;;;;;;;;;;;;;;;8.88;76.53;102553.09;7355172;19;19922;-66
2023/03/01 10:12:37;;;;;;;;;;;;;;;9.04;75.00;102560.78;7355134;19;20006;-64
2023/03/01 10:15:06;;;;;;;;;;;;;;;9.16;71.52;102562.63;7355596;19;20294;-65
2023/03/01 10:17:36;;;;;;;;;;;;;;;9.14;71.34;102547.94;7359982;19;20228;-62
2023/03/01 10:20:06;;;;;;;;;;;;;;;9.17;71.92;102542.47;7359059;19;20005;-61
2023/03/01 10:22:34;;;;;;;;;;;;;;;9.15;71.29;102560.94;7363136;19;19945;-62
2023/03/01 10:25:03;;;;;;;;;;;;;;;9.04;70.24;102552.09;7362282;19;19995;-62
2023/03/01 10:27:33;;;;;;;;;;;;;;;9.02;71.10;102552.19;7363259;19;19927;-65
2023/03/01 10:30:03;;;;;;;;;;;;;;;9.01;72.01;102553.13;7359407;19;20287;-59
2023/03/01 10:32:30;;;;;;;;;;;;;;;8.97;72.87;102564.78;7363297;19;19964;-63
2023/03/01 10:34:58;;;;;;;;;;;;;;;8.99;73.62;102562.88;7361299;19;19990;-61
2023/03/01 10:37:27;;;;;;;;;;;;;;;8.93;73.99;102550.16;7363083;19;19922;-63
2023/03/01 10:39:57;;;;;;;;;;;;;;;8.95;74.69;102551.72;7358774;19;20295;-65
2023/03/01 10:42:27;;;;;;;;;;;;;;;8.97;74.53;102547.25;7362292;19;19914;-62
2023/03/01 10:44:54;;;;;;;;;;;;;;;8.85;73.86;102549.78;7358050;19;20304;-63
2023/03/01 10:47:25;;;;;;;;;;;;;;;8.82;73.59;102542.13;7362874;19;19929;-62
2023/03/01 10:49:54;;;;;;;;;;;;;;;8.80;74.44;102539.59;7361079;19;19911;-64
2023/03/01 10:52:22;;;;;;;;;;;;;;;8.81;73.92;102543.06;7364226;19;21563;-64
2023/03/01 10:54:52;;;;;;;;;;;;;;;8.84;74.02;102542.84;7360450;19;19927;-62
2023/03/01 10:57:22;;;;;;;;;;;;;;;8.71;73.80;102545.44;7361168;19;19919;-63
2023/03/01 11:00:01;;;;;;;;;;;;;;;8.73;73.84;102530.47;7355323;19;19923;-62
2023/03/01 11:02:29;;;;;;;;;;;;;;;8.75;73.88;102531.19;7361203;19;19977;-63
2023/03/01 11:04:58;;;;;;;;;;;;;;;8.74;73.69;102529.50;7361952;19;19941;-64
2023/03/01 11:07:26;;;;;;;;;;;;;;;8.78;73.84;102523.13;7360784;19;19922;-63
2023/03/01 11:09:53;;;;;;;;;;;;;;;8.84;73.58;102512.22;7361832;19;19949;-62
2023/03/01 11:12:20;;;;;;;;;;;;;;;8.92;73.70;102511.72;7363188;19;19923;-63
2023/03/01 11:14:49;;;;;;;;;;;;;;;8.90;72.04;102506.56;7360246;19;19994;-63
2023/03/01 11:17:23;;;;;;;;;;;;;;;8.80;72.39;102507.25;7361816;19;20390;-62
2023/03/01 11:19:53;;;;;;;;;;;;;;;8.85;72.54;102511.28;7360339;19;19929;-62
2023/03/01 11:22:28;;;;;;;;;;;;;;;8.88;71.83;102513.72;7361982;19;20482;-61
2023/03/01 11:24:56;;;;;;;;;;;;;;;8.90;71.56;102511.81;7361130;19;20486;-62
2023/03/01 11:27:40;;;;;;;;;;;;;;;8.89;71.39;102497.00;7361698;19;20316;-63
2023/03/01 11:30:10;;;;;;;;;;;;;;;8.96;71.33;102494.81;7356709;19;20523;-61
2023/03/01 11:32:40;;;;;;;;;;;;;;;8.97;71.53;102488.63;7361371;19;20371;-60
2023/03/01 11:35:10;;;;;;;;;;;;;;;9.02;72.02;102491.81;7360035;19;19930;-62
2023/03/01 11:37:40;;;;;;;;;;;;;;;9.05;71.35;102483.72;7361216;19;19914;-62
2023/03/01 11:40:10;;;;;;;;;;;;;;;9.07;71.71;102481.00;7353643;19;20398;-61
2023/03/01 11:42:39;;;;;;;;;;;;;;;9.06;71.74;102472.28;7360085;19;19959;-61
2023/03/01 11:45:08;;;;;;;;;;;;;;;9.04;71.17;102474.16;7355784;19;19926;-62
2023/03/01 11:47:39;;;;;;;;;;;;;;;9.04;72.16;102474.16;7359459;19;20002;-64
2023/03/01 11:50:09;;;;;;;;;;;;;;;8.99;72.00;102471.81;7357844;19;19927;-62
2023/03/01 11:52:49;;;;;;;;;;;;;;;9.03;72.30;102464.63;7361725;19;19971;-62
2023/03/01 11:55:18;;;;;;;;;;;;;;;9.06;72.88;102460.94;7361185;19;19929;-63
2023/03/01 11:57:48;;;;;;;;;;;;;;;9.09;72.88;102451.09;7361041;19;19941;-63
2023/03/01 12:00:18;;;;;;;;;;;;;;;9.21;72.67;102459.91;7356861;19;19926;-64
2023/03/01 12:02:48;;;;;;;;;;;;;;;9.28;72.17;102453.31;7358645;19;19910;-60
2023/03/01 12:05:18;;;;;;;;;;;;;;;9.32;72.44;102447.72;7357701;19;20430;-63
2023/03/01 12:07:46;;;;;;;;;;;;;;;9.40;73.09;102447.19;7305908;19;19915;-62
2023/03/01 12:10:16;;;;;;;;;;;;;;;9.39;72.23;102437.66;7327970;19;19915;-62
2023/03/01 12:12:46;;;;;;;;;;;;;;;9.37;72.18;102434.28;7355229;19;19956;-61
2023/03/01 12:15:16;;;;;;;;;;;;;;;9.25;72.68;102435.09;7347276;19;20497;-61
2023/03/01 12:17:46;;;;;;;;;;;;;;;9.15;73.12;102416.50;7353255;19;19915;-60
2023/03/01 12:20:16;;;;;;;;;;;;;;;9.19;73.07;102411.91;7352194;19;19923;-60
2023/03/01 12:22:52;;;;;;;;;;;;;;;9.18;73.15;102408.44;7353166;19;20318;-62
2023/03/01 12:25:22;;;;;;;;;;;;;;;9.24;73.65;102415.91;7355852;19;19915;-61
2023/03/01 12:28:01;;;;;;;;;;;;;;;9.32;73.11;102407.50;7356982;19;19966;-63
2023/03/01 12:30:28;;;;;;;;;;;;;;;9.38;72.66;102402.66;7355178;19;20163;-66
2023/03/01 12:32:58;;;;;;;;;;;;;;;9.45;72.10;102397.81;7357586;19;19917;-67
2023/03/01 12:35:29;;;;;;;;;;;;;;;9.50;72.23;102394.88;7356529;19;20329;-65
2023/03/01 12:37:57;;;;;;;;;;;;;;;9.51;72.28;102399.16;7356444;19;20642;-66
2023/03/01 12:40:27;;;;;;;;;;;;;;;9.57;71.86;102396.13;7355963;19;20512;-65
2023/03/01 12:42:57;;;;;;;;;;;;;;;9.69;70.49;102384.75;7354940;19;20224;-66
2023/03/01 12:45:32;;;;;;;;;;;;;;;9.67;70.53;102392.75;7353914;19;19918;-64
2023/03/01 12:48:02;;;;;;;;;;;;;;;9.58;70.51;102388.13;7356260;19;20440;-66
2023/03/01 12:50:38;;;;;;;;;;;;;;;9.55;70.56;102371.75;7346630;19;19947;-66
2023/03/01 12:53:08;;;;;;;;;;;;;;;9.55;70.42;102366.50;7356818;19;19960;-65
2023/03/01 12:55:38;;;;;;;;;;;;;;;9.57;71.41;102356.69;7346175;19;20297;-64
2023/03/01 12:58:09;;;;;;;;;;;;;;;9.60;69.92;102348.63;7353681;19;19919;-67